Time;durP1;ratioP1;P1;durP2;ratioP2;P2;SDS_P1;SDS_P2;PMS_P1;PMS_P2;Temp;Humidity;BMP_temperature;BMP_pressure;BME280_temperature;BME280_humidity;BME280_pressure;Samples;Min_cycle;Max_cycle;Signal;HPM_P1;HPM_P2
2021/12/08 00:02:30;;;;;;;1.50;1.50;;;4.90;99.90;;;;;;5000960;28;20189;-90
2021/12/08 00:05:55;;;;;;;2.28;1.23;;;4.90;99.90;;;;;;5003670;28;20190;-89
2021/12/08 00:09:34;;;;;;;1.15;1.15;;;5.70;99.90;;;;;;5006368;28;20817;-90
2021/12/08 00:13:05;;;;;;;1.10;1.10;;;4.80;99.90;;;;;;5002983;28;20190;-91
2021/12/08 00:16:30;;;;;;;1.85;0.90;;;4.90;99.90;;;;;;5005696;28;20185;-90
2021/12/08 00:20:00;;;;;;;1.20;1.10;;;5.00;99.90;;;;;;5006687;28;20188;-90
2021/12/08 00:23:20;;;;;;;1.10;1.10;;;5.00;99.90;;;;;;5005384;28;20192;-90
2021/12/08 00:26:46;;;;;;;6.57;1.45;;;5.00;99.90;;;;;;5010339;28;20721;-92
2021/12/08 00:30:11;;;;;;;2.85;1.77;;;5.10;99.90;;;;;;5000284;28;20196;-90
2021/12/08 00:33:37;;;;;;;3.58;1.58;;;5.10;99.90;;;;;;5012598;28;20209;-90
2021/12/08 00:37:02;;;;;;;4.85;1.25;;;5.00;99.90;;;;;;5005144;28;20223;-91
2021/12/08 00:40:28;;;;;;;3.25;1.10;;;4.90;99.90;;;;;;5000368;28;20239;-91
2021/12/08 00:43:53;;;;;;;1.45;1.40;;;5.00;99.90;;;;;;4997689;28;20212;-91
2021/12/08 00:47:18;;;;;;;0.80;0.80;;;5.00;99.90;;;;;;4998198;28;20213;-90
2021/12/08 00:50:44;;;;;;;3.65;1.58;;;4.80;99.90;;;;;;4999168;28;20212;-90
2021/12/08 00:54:09;;;;;;;1.83;1.50;;;4.70;99.90;;;;;;4995995;28;20268;-91
2021/12/08 00:57:35;;;;;;;1.15;1.15;;;4.90;99.90;;;;;;4995145;28;20216;-91
2021/12/08 01:00:59;;;;;;;1.95;1.10;;;4.80;99.90;;;;;;5011134;23;20233;-92
2021/12/08 01:04:24;;;;;;;2.17;1.50;;;4.80;99.90;;;;;;5001677;28;20207;-91
2021/12/08 01:07:52;;;;;;;1.58;1.55;;;4.60;99.90;;;;;;5013681;28;20886;-91
2021/12/08 01:11:18;;;;;;;1.95;1.33;;;4.70;99.90;;;;;;5006774;28;20188;-90
2021/12/08 01:14:43;;;;;;;2.00;1.75;;;4.50;99.90;;;;;;5007139;28;20203;-91
2021/12/08 01:18:08;;;;;;;2.83;0.95;;;5.60;99.90;;;;;;5015827;28;20180;-92
2021/12/08 01:21:34;;;;;;;5.50;1.83;;;4.80;99.90;;;;;;5020703;28;20206;-92
2021/12/08 01:24:59;;;;;;;1.42;1.33;;;4.50;99.90;;;;;;5012697;28;20459;-93
2021/12/08 01:28:25;;;;;;;1.30;1.30;;;5.10;99.90;;;;;;5038269;28;20208;-91
2021/12/08 01:31:50;;;;;;;1.52;1.52;;;4.80;99.90;;;;;;5027538;28;20390;-91
2021/12/08 01:35:15;;;;;;;1.08;1.08;;;4.90;99.90;;;;;;5029356;28;20192;-91
2021/12/08 01:38:41;;;;;;;1.30;1.30;;;4.70;99.90;;;;;;5018553;28;20561;-91
2021/12/08 01:42:15;;;;;;;1.63;1.50;;;5.40;99.90;;;;;;5018219;28;20202;-91
2021/12/08 01:47:36;;;;;;;1.58;1.48;;;5.20;99.90;;;;;;5018337;28;20275;-94
2021/12/08 01:50:05;;;;;;;1.90;1.47;;;5.20;99.90;;;;;;5017712;28;20206;-94
2021/12/08 01:52:31;;;;;;;1.67;1.58;;;5.10;99.90;;;;;;4996336;28;20209;-93
2021/12/08 01:54:57;;;;;;;1.30;1.30;;;5.00;99.90;;;;;;4994640;28;20192;-94
2021/12/08 01:57:22;;;;;;;1.57;1.57;;;4.90;99.90;;;;;;5004346;28;20219;-93
2021/12/08 01:59:48;;;;;;;2.10;1.73;;;4.90;99.90;;;;;;5005865;28;20234;-93
2021/12/08 02:02:14;;;;;;;1.20;1.20;;;5.10;99.90;;;;;;5007916;28;20189;-93
2021/12/08 02:04:41;;;;;;;4.43;1.88;;;5.50;99.90;;;;;;5020768;28;20196;-93
2021/12/08 02:07:07;;;;;;;1.05;1.05;;;5.20;99.90;;;;;;5009097;28;20992;-94
2021/12/08 02:09:33;;;;;;;2.03;2.00;;;5.20;99.90;;;;;;4994585;28;20314;-93
2021/12/08 02:11:58;;;;;;;1.60;1.60;;;5.20;99.90;;;;;;5005630;28;20184;-93
2021/12/08 02:14:24;;;;;;;1.00;1.00;;;5.20;99.90;;;;;;4993821;28;20189;-92
2021/12/08 02:16:53;;;;;;;1.50;1.47;;;5.40;99.90;;;;;;4994645;28;20599;-92
2021/12/08 02:19:19;;;;;;;1.10;1.10;;;5.40;99.90;;;;;;5017793;28;20447;-92
2021/12/08 02:21:51;;;;;;;1.13;1.13;;;5.40;99.90;;;;;;5024054;28;20262;-93
2021/12/08 02:24:17;;;;;;;1.50;1.50;;;5.30;99.90;;;;;;4993515;28;20933;-92
2021/12/08 02:26:45;;;;;;;2.13;1.50;;;5.90;99.90;;;;;;5007128;28;20187;-93
2021/12/08 02:29:15;;;;;;;0.95;0.95;;;5.50;99.90;;;;;;5010093;28;20227;-93
2021/12/08 02:47:54;;;;;;;0.80;0.80;;;5.60;99.90;;;;;;4995418;28;20194;-93
2021/12/08 02:50:34;;;;;;;1.00;1.00;;;6.30;99.90;;;;;;5013239;28;20617;-93
2021/12/08 02:53:01;;;;;;;0.98;0.98;;;5.90;99.90;;;;;;4993840;28;20184;-94
2021/12/08 02:55:28;;;;;;;1.95;0.93;;;5.80;99.90;;;;;;5030647;28;20191;-94
2021/12/08 02:57:54;;;;;;;1.58;1.58;;;5.90;99.90;;;;;;5006544;28;20247;-92
2021/12/08 03:00:24;;;;;;;2.93;1.00;;;5.80;99.90;;;;;;4995561;28;20216;-92
2021/12/08 03:02:55;;;;;;;0.95;0.90;;;5.80;99.90;;;;;;5008958;28;20645;-91
2021/12/08 03:05:22;;;;;;;1.50;1.35;;;5.80;99.90;;;;;;5021331;28;20184;-93
2021/12/08 03:07:48;;;;;;;1.30;1.30;;;6.30;99.90;;;;;;5034707;28;20253;-93
2021/12/08 03:10:18;;;;;;;0.80;0.80;;;5.90;99.90;;;;;;5006159;28;20229;-92
2021/12/08 03:12:43;;;;;;;1.38;1.25;;;5.60;99.90;;;;;;5003001;28;20731;-91
2021/12/08 03:15:11;;;;;;;1.20;1.20;;;6.10;99.90;;;;;;5031577;28;20188;-92
2021/12/08 03:17:38;;;;;;;1.27;1.17;;;5.90;99.90;;;;;;5020305;28;20205;-93
2021/12/08 03:20:07;;;;;;;1.13;1.13;;;6.10;99.90;;;;;;5005318;28;20228;-94
2021/12/08 03:22:36;;;;;;;1.17;1.02;;;6.10;99.90;;;;;;5014487;28;20191;-93
2021/12/08 03:25:05;;;;;;;1.55;1.55;;;6.30;99.90;;;;;;4998443;28;20197;-92
2021/12/08 03:27:36;;;;;;;1.10;1.10;;;6.10;99.90;;;;;;5011240;28;20216;-92
2021/12/08 03:30:16;;;;;;;0.82;0.82;;;6.10;99.90;;;;;;5001333;28;20203;-93
2021/12/08 03:32:42;;;;;;;1.25;1.15;;;6.20;99.90;;;;;;5004683;28;20207;-92
2021/12/08 03:35:15;;;;;;;2.05;0.82;;;6.10;99.90;;;;;;4996423;28;20188;-93
2021/12/08 03:37:44;;;;;;;1.80;1.75;;;6.40;99.90;;;;;;4996647;28;20204;-92
2021/12/08 03:40:17;;;;;;;1.30;1.30;;;6.20;99.90;;;;;;5028292;28;20381;-94
2021/12/08 03:42:45;;;;;;;1.02;0.93;;;6.20;99.90;;;;;;5005955;28;20224;-93
2021/12/08 03:45:26;;;;;;;1.00;1.00;;;6.00;99.90;;;;;;5008752;28;20194;-93
2021/12/08 03:47:59;;;;;;;0.82;0.82;;;6.10;99.90;;;;;;5011991;28;20191;-92
2021/12/08 03:50:27;;;;;;;1.10;0.95;;;6.30;99.90;;;;;;5015760;28;20180;-92
2021/12/08 03:52:53;;;;;;;2.90;1.30;;;6.00;99.90;;;;;;5011180;28;20198;-93
2021/12/08 03:55:19;;;;;;;1.30;1.30;;;5.60;99.90;;;;;;5007671;28;20270;-92
2021/12/08 03:57:45;;;;;;;1.10;1.00;;;6.20;99.90;;;;;;5031295;28;20220;-92
2021/12/08 04:00:17;;;;;;;1.50;1.40;;;6.10;99.90;;;;;;5017777;28;20278;-93
2021/12/08 04:02:44;;;;;;;1.38;1.27;;;6.00;99.90;;;;;;4997499;28;20459;-92
2021/12/08 04:05:11;;;;;;;0.93;0.93;;;5.80;99.90;;;;;;5003223;28;20195;-93
2021/12/08 04:07:44;;;;;;;6.95;1.50;;;5.90;99.90;;;;;;5001852;28;20184;-92
2021/12/08 04:10:18;;;;;;;0.98;0.98;;;5.90;99.90;;;;;;5001019;28;20670;-92
2021/12/08 04:12:46;;;;;;;3.58;1.60;;;5.90;99.90;;;;;;5009363;28;20180;-92
2021/12/08 04:15:14;;;;;;;1.33;1.33;;;5.80;99.90;;;;;;5011408;28;20214;-93
2021/12/08 04:17:44;;;;;;;1.50;1.50;;;6.00;99.90;;;;;;5044537;28;20224;-93
2021/12/08 04:20:21;;;;;;;1.45;1.42;;;6.30;99.90;;;;;;5022474;28;20200;-92
2021/12/08 04:22:52;;;;;;;1.35;1.10;;;6.30;99.90;;;;;;5032918;28;20442;-93
2021/12/08 04:25:24;;;;;;;3.30;2.05;;;6.10;99.90;;;;;;5013407;28;20172;-90
2021/12/08 04:27:53;;;;;;;0.90;0.90;;;6.30;99.90;;;;;;5006787;28;20559;-94
2021/12/08 04:30:32;;;;;;;2.40;1.58;;;6.00;99.90;;;;;;5027899;28;20254;-93
2021/12/08 04:32:58;;;;;;;1.08;1.08;;;6.10;99.90;;;;;;5027510;28;20200;-93
2021/12/08 04:35:24;;;;;;;1.25;1.25;;;6.20;99.90;;;;;;5007023;28;20211;-90
2021/12/08 04:37:54;;;;;;;1.15;1.15;;;6.10;99.90;;;;;;5043116;28;20257;-93
2021/12/08 04:40:54;;;;;;;1.38;1.27;;;6.20;99.90;;;;;;5004231;28;20475;-93
2021/12/08 04:43:33;;;;;;;6.53;3.47;;;6.30;99.90;;;;;;5024655;28;20180;-93
2021/12/08 05:07:50;;;;;;;3.47;1.92;;;6.30;99.90;;;;;;4974318;28;20199;-93
2021/12/08 05:10:56;;;;;;;2.05;1.25;;;6.20;99.90;;;;;;5003682;28;20195;-92
2021/12/08 05:14:21;;;;;;;1.23;1.10;;;6.40;99.90;;;;;;5012791;28;20203;-93
2021/12/08 05:17:46;;;;;;;0.80;0.68;;;6.40;99.90;;;;;;5035691;28;20200;-90
2021/12/08 05:20:56;;;;;;;1.73;1.63;;;6.40;99.90;;;;;;5030558;28;20226;-93
2021/12/08 05:24:32;;;;;;;1.67;1.58;;;6.70;99.90;;;;;;5040501;28;20275;-93
2021/12/08 05:27:55;;;;;;;2.13;1.48;;;6.70;99.90;;;;;;5037852;28;20210;-93
2021/12/08 05:31:20;;;;;;;1.25;1.25;;;6.40;99.90;;;;;;5036300;28;20268;-92
2021/12/08 05:34:46;;;;;;;1.85;1.75;;;6.60;99.90;;;;;;5019837;28;20208;-93
2021/12/08 05:38:11;;;;;;;2.00;1.90;;;6.60;99.90;;;;;;5032708;28;20223;-93
2021/12/08 05:41:25;;;;;;;1.42;1.30;;;6.60;99.90;;;;;;5026295;28;20239;-92
2021/12/08 05:44:51;;;;;;;2.00;1.90;;;6.00;99.90;;;;;;5030264;28;20311;-90
2021/12/08 05:48:16;;;;;;;2.53;2.38;;;6.40;99.90;;;;;;5014946;28;20196;-90
2021/12/08 05:51:48;;;;;;;5.20;2.13;;;6.10;99.90;;;;;;5001343;28;20536;-90
2021/12/08 05:54:37;;;;;;;2.35;2.22;;;6.40;99.90;;;;;;5003830;28;20197;-90
2021/12/08 05:57:17;;;;;;;2.78;2.58;;;6.70;99.90;;;;;;4996590;28;20189;-90
2021/12/08 05:59:46;;;;;;;5.53;1.95;;;6.60;99.90;;;;;;4983301;28;20233;-88
2021/12/08 06:02:24;;;;;;;3.03;2.30;;;6.70;99.90;;;;;;4979610;28;20239;-90
2021/12/08 06:04:50;;;;;;;1.73;1.73;;;6.60;99.90;;;;;;4988420;28;20383;-89
2021/12/08 06:07:21;;;;;;;4.13;2.42;;;6.40;99.90;;;;;;5007958;28;20207;-90
2021/12/08 06:09:47;;;;;;;2.40;2.40;;;6.30;99.90;;;;;;4987998;28;20212;-90
2021/12/08 06:12:13;;;;;;;1.70;1.60;;;6.20;99.90;;;;;;5004797;28;20701;-89
2021/12/08 06:14:39;;;;;;;3.03;2.77;;;6.30;99.90;;;;;;4982418;28;20241;-89
2021/12/08 06:17:18;;;;;;;2.10;1.90;;;6.30;99.90;;;;;;4999448;28;20201;-90
2021/12/08 06:19:46;;;;;;;1.70;1.70;;;6.20;99.90;;;;;;4304723;28;10000710;-89
2021/12/08 06:22:13;;;;;;;2.72;2.72;;;6.40;99.90;;;;;;4992173;28;20195;-89
2021/12/08 06:24:39;;;;;;;4.25;1.63;;;6.50;99.90;;;;;;5008268;28;20185;-87
2021/12/08 06:27:06;;;;;;;6.03;1.73;;;6.20;99.90;;;;;;4993370;28;20193;-91
2021/12/08 06:29:33;;;;;;;2.08;2.08;;;6.20;99.90;;;;;;4994237;28;20205;-89
2021/12/08 06:32:01;;;;;;;3.15;1.73;;;6.20;99.90;;;;;;5006819;28;20199;-89
2021/12/08 06:35:06;;;;;;;1.95;1.77;;;5.40;99.90;;;;;;5003544;28;20413;-89
2021/12/08 06:38:32;;;;;;;3.00;1.30;;;6.30;99.90;;;;;;5020076;28;20227;-90
2021/12/08 06:41:58;;;;;;;3.08;2.97;;;6.30;99.90;;;;;;5009682;28;20256;-88
2021/12/08 06:45:23;;;;;;;3.05;1.80;;;6.30;99.90;;;;;;5021089;28;20247;-89
2021/12/08 06:48:48;;;;;;;1.13;1.13;;;6.40;99.90;;;;;;5021564;28;20203;-87
2021/12/08 06:52:17;;;;;;;3.20;1.55;;;6.40;99.90;;;;;;5014209;28;20224;-89
2021/12/08 06:55:46;;;;;;;3.03;1.88;;;6.30;99.90;;;;;;5009765;28;20199;-90
2021/12/08 06:58:41;;;;;;;1.65;1.60;;;6.40;99.90;;;;;;4998115;28;20225;-90
2021/12/08 07:04:57;;;;;;;2.95;2.60;;;8.40;99.90;;;;;;4974604;28;20300;-89
2021/12/08 07:07:27;;;;;;;5.20;1.65;;;6.40;99.90;;;;;;4970166;28;20204;-91
2021/12/08 07:10:03;;;;;;;2.28;2.10;;;6.30;99.90;;;;;;5010219;23;20236;-80
2021/12/08 07:12:44;;;;;;;4.93;2.05;;;6.40;99.90;;;;;;4971649;28;20197;-81
2021/12/08 07:15:24;;;;;;;1.60;1.50;;;6.50;99.90;;;;;;4963475;28;20610;-82
2021/12/08 07:18:05;;;;;;;;;;;;;;;;;;;;;
2021/12/08 07:20:45;;;;;;;2.70;2.50;;;6.30;99.90;;;;;;5125859;23;20555;-78
2021/12/08 07:23:17;;;;;;;4.30;2.28;;;6.50;99.90;;;;;;4980854;28;20334;-79
2021/12/08 07:25:44;;;;;;;2.40;2.30;;;6.70;99.90;;;;;;4980863;28;20194;-81
2021/12/08 07:28:12;;;;;;;3.40;3.20;;;6.40;99.90;;;;;;4961794;28;20706;-81
2021/12/08 07:30:48;;;;;;;1.85;1.75;;;6.50;99.90;;;;;;4963039;28;20197;-81
2021/12/08 07:33:14;;;;;;;2.40;1.45;;;6.40;99.90;;;;;;4962791;28;20201;-82
2021/12/08 07:35:47;;;;;;;2.13;2.03;;;6.40;99.90;;;;;;4963563;28;20356;-80
2021/12/08 07:38:17;;;;;;;3.95;1.75;;;6.50;99.90;;;;;;4979609;28;20475;-80
2021/12/08 07:40:52;;;;;;;1.90;1.80;;;6.50;99.90;;;;;;4981320;28;20555;-82
2021/12/08 07:43:21;;;;;;;6.82;1.95;;;6.50;99.90;;;;;;4963933;28;20201;-83
2021/12/08 07:45:56;;;;;;;2.10;2.10;;;5.90;99.90;;;;;;4964916;28;20193;-80
2021/12/08 07:48:29;;;;;;;1.92;1.70;;;6.50;99.90;;;;;;4962975;28;20286;-82
2021/12/08 07:51:03;;;;;;;2.08;1.85;;;6.40;99.90;;;;;;4986408;28;20556;-83
2021/12/08 07:53:31;;;;;;;2.38;2.10;;;6.30;99.90;;;;;;4988378;28;20207;-79
2021/12/08 07:56:03;;;;;;;1.80;1.70;;;6.10;99.90;;;;;;4971142;28;20214;-83
2021/12/08 07:58:29;;;;;;;1.60;1.50;;;6.90;99.90;;;;;;4979245;28;20209;-83
2021/12/08 08:01:09;;;;;;;17.00;1.90;;;6.40;99.90;;;;;;4989276;28;20304;-81
2021/12/08 08:03:35;;;;;;;2.00;1.90;;;6.10;99.90;;;;;;4988943;28;20607;-78
2021/12/08 08:06:05;;;;;;;1.27;1.27;;;6.30;99.90;;;;;;4985381;28;20237;-79
2021/12/08 08:08:34;;;;;;;1.70;1.60;;;7.50;99.90;;;;;;4975486;28;20523;-82
2021/12/08 08:11:08;;;;;;;1.90;1.60;;;6.90;99.90;;;;;;4630040;28;10000552;-81
2021/12/08 08:13:34;;;;;;;3.42;2.30;;;6.50;99.90;;;;;;4955118;28;20202;-81
2021/12/08 08:16:08;;;;;;;2.45;2.25;;;6.30;99.90;;;;;;4975783;28;20198;-80
2021/12/08 08:18:40;;;;;;;14.80;3.25;;;6.50;99.90;;;;;;4991753;28;20223;-81
2021/12/08 08:21:14;;;;;;;2.50;2.30;;;6.40;99.90;;;;;;5004480;28;20271;-80
2021/12/08 08:23:40;;;;;;;2.38;1.83;;;6.50;99.90;;;;;;4992542;28;20629;-82
2021/12/08 08:26:09;;;;;;;4.00;2.30;;;7.40;99.90;;;;;;4984137;28;20188;-82
2021/12/08 08:28:35;;;;;;;2.58;2.45;;;6.50;99.90;;;;;;4986035;28;20181;-81
2021/12/08 08:31:09;;;;;;;4.75;2.25;;;6.50;99.90;;;;;;4983971;28;20283;-78
2021/12/08 08:33:37;;;;;;;43.47;8.77;;;6.50;99.90;;;;;;4986281;28;20168;-81
2021/12/08 08:36:08;;;;;;;16.95;4.95;;;6.90;99.90;;;;;;4985808;28;20502;-83
2021/12/08 08:38:46;;;;;;;3.22;2.10;;;6.80;99.90;;;;;;4973080;28;20217;-81
2021/12/08 08:41:23;;;;;;;3.67;2.28;;;6.70;99.90;;;;;;4965288;28;20296;-80
2021/12/08 08:43:51;;;;;;;2.58;2.38;;;6.90;99.90;;;;;;4980052;28;20256;-82
2021/12/08 08:46:27;;;;;;;2.58;1.95;;;6.80;99.90;;;;;;4953042;28;20203;-82
2021/12/08 08:49:03;;;;;;;4.20;2.22;;;7.00;99.90;;;;;;4956355;28;20193;-82
2021/12/08 08:51:36;;;;;;;6.75;2.53;;;6.90;99.90;;;;;;4967229;28;20253;-81
2021/12/08 08:54:09;;;;;;;3.00;2.28;;;6.80;99.90;;;;;;4964558;28;20188;-79
2021/12/08 08:56:38;;;;;;;2.05;1.73;;;6.90;99.90;;;;;;4963678;28;20189;-81
2021/12/08 08:59:12;;;;;;;5.25;2.35;;;6.80;99.90;;;;;;4965909;28;20209;-81
2021/12/08 09:01:41;;;;;;;3.05;2.15;;;7.70;99.90;;;;;;4964661;28;20181;-81
2021/12/08 09:04:15;;;;;;;7.13;2.80;;;6.90;99.90;;;;;;4965592;28;20512;-81
2021/12/08 09:06:46;;;;;;;2.30;2.20;;;6.00;99.90;;;;;;4965820;28;20181;-81
2021/12/08 09:09:30;;;;;;;1.38;1.38;;;7.40;99.90;;;;;;4966136;28;20383;-80
2021/12/08 09:12:22;;;;;;;2.22;2.13;;;6.90;99.90;;;;;;4981224;28;20189;-81
2021/12/08 09:14:57;;;;;;;3.05;1.95;;;7.00;99.90;;;;;;4975599;28;20224;-81
2021/12/08 09:17:30;;;;;;;3.50;2.13;;;7.60;99.90;;;;;;4964541;28;20208;-80
2021/12/08 09:20:31;;;;;;;3.88;2.97;;;8.30;99.90;;;;;;4974765;28;20651;-81
2021/12/08 09:23:20;;;;;;;2.75;2.08;;;7.20;99.90;;;;;;4956504;28;20236;-81
2021/12/08 09:25:50;;;;;;;3.65;2.10;;;7.30;99.90;;;;;;4961807;28;20196;-81
2021/12/08 09:28:22;;;;;;;2.25;2.00;;;8.50;99.90;;;;;;4972067;28;20215;-81
2021/12/08 09:30:58;;;;;;;9.10;2.05;;;9.40;99.90;;;;;;4983634;28;20177;-81
2021/12/08 09:33:27;;;;;;;2.45;2.10;;;7.30;99.90;;;;;;4950275;28;20787;-78
2021/12/08 09:35:58;;;;;;;5.18;1.90;;;10.50;99.90;;;;;;4969549;28;20712;-80
2021/12/08 09:38:34;;;;;;;3.03;1.60;;;8.00;99.90;;;;;;4972171;28;20221;-78
2021/12/08 09:41:25;;;;;;;4.32;1.70;;;7.60;99.90;;;;;;4963834;28;20281;-81
2021/12/08 09:43:55;;;;;;;1.52;1.45;;;8.00;99.90;;;;;;4952873;28;20697;-80
2021/12/08 09:46:33;;;;;;;2.08;1.80;;;7.40;99.90;;;;;;4986416;28;20200;-79
2021/12/08 09:48:59;;;;;;;2.45;1.60;;;7.90;99.90;;;;;;4977130;28;20185;-83
2021/12/08 09:51:28;;;;;;;1.63;1.55;;;7.50;99.90;;;;;;4973176;28;20547;-83
2021/12/08 09:53:54;;;;;;;2.85;2.33;;;7.80;99.90;;;;;;4990511;28;20204;-83
2021/12/08 09:56:22;;;;;;;5.15;2.38;;;7.60;99.90;;;;;;4981796;28;20188;-83
2021/12/08 09:58:52;;;;;;;2.47;1.70;;;8.90;99.90;;;;;;4965238;28;20227;-84
2021/12/08 10:01:20;;;;;;;2.30;2.10;;;7.60;99.90;;;;;;4974241;28;20443;-81
2021/12/08 10:03:48;;;;;;;2.20;2.10;;;7.60;99.90;;;;;;4988782;28;20588;-80
2021/12/08 10:06:15;;;;;;;2.20;1.70;;;7.60;99.90;;;;;;4972577;28;20203;-79
2021/12/08 10:08:42;;;;;;;2.00;1.90;;;7.60;99.90;;;;;;4958658;28;20205;-81
2021/12/08 10:11:09;;;;;;;4.72;2.10;;;7.40;99.90;;;;;;4966705;28;20197;-78
2021/12/08 10:13:35;;;;;;;4.22;2.00;;;7.70;99.90;;;;;;4973795;28;20688;-81
2021/12/08 10:16:01;;;;;;;2.60;1.80;;;8.40;99.90;;;;;;4967593;28;20197;-81
2021/12/08 10:18:26;;;;;;;5.10;2.10;;;7.90;99.90;;;;;;4964049;28;20322;-78
2021/12/08 10:20:55;;;;;;;6.10;1.90;;;8.20;99.90;;;;;;4980280;28;20467;-80
2021/12/08 10:23:24;;;;;;;6.90;1.75;;;8.00;99.90;;;;;;4991529;28;20255;-80
2021/12/08 10:25:54;;;;;;;4.75;2.03;;;8.00;99.90;;;;;;4966924;28;20667;-80
2021/12/08 10:28:27;;;;;;;2.00;1.70;;;8.30;99.90;;;;;;4983991;28;20193;-77
2021/12/08 10:30:57;;;;;;;3.53;2.15;;;8.40;99.90;;;;;;4985553;28;20189;-78
2021/12/08 10:33:50;;;;;;;4.43;2.10;;;8.70;99.90;;;;;;4965358;28;20186;-79
2021/12/08 10:37:02;;;;;;;5.50;2.05;;;8.40;99.90;;;;;;4991997;28;20272;-78
